Terminal Aerodrome Forecast
Issued by NWS Wilmington, OH

Current Version | Previous Version | Graphics & Text | Print | Product List | Glossary On
Versions: 1 2 3 4 5 6 7 8 9 10 11 12 13 14 15 16 17 18 19 20 21 22 23 24 25
756
FTUS41 KILN 152329
TAFCVG
TAF
KCVG 152329Z 1600/1706 24006KT 2SM -SN BR VCSH OVC012
     FM160200 28008KT P6SM VCSH OVC012
     FM160400 28008KT P6SM OVC025
     FM170000 26003KT P6SM OVC022=

USA.gov is the U.S. government's official web portal to all federal, state and local government web resources and services.